Terminal Aerodrome Forecast
Issued by NWS

Home | Current Version | Previous Version | Text Only | Print | Product List | Glossary On
Versions: 1 2 3 4 5 6 7 8 9 10 11 12 13 14 15 16 17 18
025
FTAK31 PAJN 232023 AAA
TAFASI
TAF AMD
PASI 232023Z 2320/2418 12009KT 6SM -RA BKN015 OVC040
     FM240400 13014G22KT 6SM -RA BR BKN030 OVC040 WS020/14035KT
      TEMPO 2405/2409 13022G34KT
     FM240900 13009KT 6SM -RA BR BKN030 OVC035
     FM241200 13006KT P6SM -SHRA BKN035 OVC045=

USA.gov is the U.S. government's official web portal to all federal, state and local government web resources and services.